الصفحة الرئيسية
METAR-TAF:

METAR-TAF

مطار :

نيجنفارتوفسك, روسيا

دائرة عرض: 60-56N, خط طول: 076-29E, ارتفاع: 54 متر

مراقبة الطقس الحالي

تاريخ ووقت الإصدار 43 دقيقة قبل الساعة 17:00UTC
ريح 4 عقدة من الجنوب الشرقي
درجة الحرارة -15°درجة مئوية
الرطوبة 85%
ضغط 1023 hPa
الرؤية 10 كم أو أكثر
ملبد بالغيوم على ارتفاع 1800 قدم

METAR: USNN 171700Z 14002MPS 9999 OVC018 M15/M17 Q1023 R21/420361 NOSIG RMK QFE762

زمن: 22:43 (17:43 UTC)

توقعات

تاريخ ووقت الإصدار 43 دقيقة قبل الساعة 17:00UTC
التوقعات صالحة من17 الساعة 18 UTC إلى 18 الساعة 18 UTC
ريح 6 عقدة من الجنوب الشرقي
الرؤية: 4100 متر
ملبد بالغيوم على ارتفاع 2000 قدم
غشاء
مؤقت
من 17 الساعة 18 UTC إلى 18 الساعة 03 UTC
ريح 2 عقدةمن اتجاهات متغيرة
الرؤية: 0800 متر
على ارتفاع 200 قدم
ضباب مجمِّد
أصبح
من 18 الساعة 03 UTC إلى 18 الساعة 05 UTC
ريح 6 عقدة من الجنوب

TAF: USNN 171700Z 1718/1818 14003MPS 4100 BR OVC020 TEMPO 1718/1803 VRB01MPS 0800 FZFG VV002 BECMG 1803/1805 19003MPS

أرصاد الطقس والتوقعات من أكثر من 4000 مطار (تقارير الطقس للمطار METAR والتنبؤ بالطقس بالمطارTAF).

المحطات المتاحة هي النقط الصفراء والحمراء على الخريطة.

حرك المؤشر فوق النقطة لمعرفة اسم المحطة.

ثم انقر لمعرفة أرصاد وتوقعات الطقس.

لتغيير الخارطة: اضغط على الأزرار الخضراء مع رمز الصليب الأسود للتكبير. على الزر الأخضر مع شرطة للتصغير، أو على الأسهم الخضراء للخرائط المجاورة.


METAR-TAF: